Aérodrome :
LOGIN :

S'inscrire | Disclaimer

   EN    FR    IT 

 










Légende :    VFR   VFR Marginal   IFR   IFR Intensif   IFR Très Intensif
Visi : 
Plafond : 
>= 8 km
>= 3000ft
5 à 8 km
1000 à 3000 ft
1500m à 5 km
500 à 1000 ft
800 à 1500m
200 à 500 ft
< 800m
< 200 ft
Symboles :   Orages  Brouillard  Fortes neiges  Fortes précipitations  Vent > 20 kt
SIGMETs :   Divers  Orages  Givrage  Turbulence  Onde Orograph.  Cendres Volcan.







- Altitude de l'aérodrome : 464 ft
- Code IATA : EVX
- Voir les cartes d'approche


LFOE - Evreux

DERNIER METAR :
  • 141030Z AUTO 28009KT 240V310 9999 FEW030 SCT041 BKN050 22/13 Q1019 NOSIG

METARs EXPIRÉS :
  • 141000Z AUTO 28008KT 240V310 9999 BKN026 21/14 Q1019 NOSIG
  • 140930Z AUTO 29009KT 250V330 9999 BKN022 BKN028 BKN048 20/14 Q1019 NOSIG
  • 140900Z AUTO 28008KT 240V310 9999 SCT017 SCT022 20/15 Q1018 NOSIG
  • 140830Z AUTO 28010KT 250V320 9999 BKN014 19/15 Q1018 BECMG BKN020
  • 140800Z AUTO 28010KT 9999 BKN011 18/15 Q1018 BECMG SCT012 BKN017

TAF TAF LFOE
Valide du 14 à 09h jusqu'au 15 à 09h UTC


140800Z 1409/1509 29010KT 9999 BKN010
BECMG 1409/1411 BKN020
BECMG 1423/1501 BKN012
TEMPO 1501/1506 BKN005
BECMG 1507/1509 BKN018
Pas de NOTAMs connus pour ce terrain.



MET'MAP, la Météo Aéronautique d'un coup d'oeil ! - Copyright ORBIFLY Décembre 2007 - Disclaimer

ORBIFLY MET'MAP TEAM :

Programmation & Développement : Alexandra Zaïnal
Conception & Développement : Baudouin d'Aumeries
Co-Programmation & Développement : Marc-Olivier Méhu
Soutien technique & logistique : Manuel Goepfert

Contact : metmap@orbifly.com




SOURCES & CREDITS :

   NOAA